ENHF

Hammerfest Airport

Hammerfest, Norway
METAR ENHF 191220Z 10012KT 9999 FEW027 SCT032 09/03 Q1001 RMK WIND 1254FT 13019KT
Observed Flight Rules
Sep-19 @ 12:20 UTC (38 minutes ago) Visual Flight Rules
Wind Visibility Clouds
100° at 12 knots 10,000+ meters
  • Few at 2,700' AGL
  • Scattered at 3,200' AGL
Temperatures Readings
Current 9°C / 48°F
Dewpoint 3°C / 37°F
Humidity 66%
Altimeter 29.56" Hg
Pressure 1001 hPa
Elevation 81
METAR ENHF 191220Z 10012KT 9999 FEW027 SCT032 09/03 Q1001 RMK WIND 1254FT 13019KT
Observed Flight Rules
Sep-19 @ 12:20 UTC
(38 minutes ago)
VFR
Wind Visibility
100° at 12 knots 10,000+ meters
Clouds
  • Few at 2,700' AGL
  • Scattered at 3,200' AGL
Temperature Dewpoint
9°C / 48°F 3°C / 37°F
Humidity Altimeter Pressure
66% 29.56" Hg 1001 hPa